Aérodrome :
LOGIN :

S'inscrire | Disclaimer

   EN    FR    IT 

 










Légende :    VFR   VFR Marginal   IFR   IFR Intensif   IFR Très Intensif
Visi : 
Plafond : 
>= 8 km
>= 3000ft
5 à 8 km
1000 à 3000 ft
1500m à 5 km
500 à 1000 ft
800 à 1500m
200 à 500 ft
< 800m
< 200 ft
Symboles :   Orages  Brouillard  Fortes neiges  Fortes précipitations  Vent > 20 kt
SIGMETs :   Divers  Orages  Givrage  Turbulence  Onde Orograph.  Cendres Volcan.






- Altitude de l'aérodrome : 622 ft
- Code IATA : BRS


EGGD - Bristol Int.

DERNIER METAR :
  • 231950Z AUTO 26010KT 9999 -RA FEW046 14/11 Q1024

METARs EXPIRÉS :
  • 231920Z AUTO 26010KT 9999 NCD 14/10 Q1024
  • 231850Z AUTO 26012KT 9999 NCD 15/10 Q1024
  • 231820Z AUTO 26013KT 9999 NCD 15/11 Q1024
  • 231750Z AUTO 25010KT 9999 NCD 15/10 Q1023
  • 231720Z AUTO 26011KT 9999 NCD 16/10 Q1023

TAF TAF EGGD
Valide du 23 à 18h jusqu'au 24 à 18h UTC


231659Z 2318/2418 27010KT 9999 FEW045
BECMG 2321/2324 33004KT
PROB40
TEMPO 2404/2418 8000 -RA BKN007
ATIS : +44 1275 473 666



MET'MAP, la Météo Aéronautique d'un coup d'oeil ! - Copyright ORBIFLY Décembre 2007 - Disclaimer

ORBIFLY MET'MAP TEAM :

Programmation & Développement : Alexandra Zaïnal
Sur une idée originale de : Baudouin d'Aumeries
Assistance à la programmation : Marc-Olivier Méhu
Soutien technique & logistique : Manuel Goepfert

Contact : metmap@orbifly.com




SOURCES & CREDITS :

   NOAA